Godfrey, Illinois
Current Conditions -  °F | °C
As of 9:50 AM on Wednesday 26 Nov 2014 (Local Time) from KALN Reporting Station
Broken Clouds Broken Clouds  
Wind Chill: 23°   Ceiling: 7500
Heat Index: 32°   Visibility: 10mi
Dew Point: 28°   Wind: 12mph
Humidity: 87%   Direction: 140°SE
Pressure: 30.06"   Gusts: NA
Location:  38.97°N, 90.19°W
Report Text: KALN 261550Z 14010KT 10SM BKN075 OVC 090 00/M02 A3006
Loading
Personal Weather Stations






























Interactive Weather Map New forecast layout! Learn more

10-Day Weather Forecast

Advertisements
Track Severe Weather on mobile